sensor_id;sensor_type;location;lat;lon;timestamp;pressure;altitude;pressure_sealevel;temperature;humidity
51849;BME280;38952;51.090;-1.832;2023-01-26T00:01:22;101693.03;;;2.37;100.00
51849;BME280;38952;51.090;-1.832;2023-01-26T00:03:52;101698.25;;;2.38;100.00
51849;BME280;38952;51.090;-1.832;2023-01-26T00:06:19;101702.88;;;2.30;100.00
51849;BME280;38952;51.090;-1.832;2023-01-26T00:08:47;101706.22;;;2.32;100.00
51849;BME280;38952;51.090;-1.832;2023-01-26T00:11:16;101701.53;;;2.25;100.00
51849;BME280;38952;51.090;-1.832;2023-01-26T00:13:42;101697.06;;;2.18;100.00
51849;BME280;38952;51.090;-1.832;2023-01-26T00:16:10;101689.78;;;2.18;100.00
51849;BME280;38952;51.090;-1.832;2023-01-26T00:18:37;101707.66;;;2.19;100.00
51849;BME280;38952;51.090;-1.832;2023-01-26T00:21:03;101709.03;;;2.15;100.00
51849;BME280;38952;51.090;-1.832;2023-01-26T00:23:31;101696.91;;;2.11;100.00
51849;BME280;38952;51.090;-1.832;2023-01-26T00:25:57;101707.06;;;2.09;100.00
51849;BME280;38952;51.090;-1.832;2023-01-26T00:28:22;101699.97;;;2.08;100.00
51849;BME280;38952;51.090;-1.832;2023-01-26T00:30:48;101700.16;;;2.06;100.00
51849;BME280;38952;51.090;-1.832;2023-01-26T00:33:14;101705.00;;;2.11;100.00
51849;BME280;38952;51.090;-1.832;2023-01-26T00:35:39;101710.41;;;2.11;100.00
51849;BME280;38952;51.090;-1.832;2023-01-26T00:38:11;101701.34;;;2.04;100.00
51849;BME280;38952;51.090;-1.832;2023-01-26T00:40:38;101701.06;;;1.99;100.00
51849;BME280;38952;51.090;-1.832;2023-01-26T00:43:04;101699.72;;;1.95;100.00
51849;BME280;38952;51.090;-1.832;2023-01-26T00:45:29;101705.47;;;1.91;100.00
51849;BME280;38952;51.090;-1.832;2023-01-26T00:47:55;101691.50;;;1.88;100.00
51849;BME280;38952;51.090;-1.832;2023-01-26T00:50:20;101687.28;;;1.85;100.00
51849;BME280;38952;51.090;-1.832;2023-01-26T00:52:46;101691.56;;;1.80;100.00
51849;BME280;38952;51.090;-1.832;2023-01-26T00:55:11;101692.84;;;1.84;100.00
51849;BME280;38952;51.090;-1.832;2023-01-26T00:57:36;101697.31;;;2.00;100.00
51849;BME280;38952;51.090;-1.832;2023-01-26T01:00:03;101701.50;;;2.34;100.00
51849;BME280;38952;51.090;-1.832;2023-01-26T01:02:30;101703.69;;;2.53;100.00
51849;BME280;38952;51.090;-1.832;2023-01-26T01:04:55;101705.59;;;2.68;100.00
51849;BME280;38952;51.090;-1.832;2023-01-26T01:07:21;101697.97;;;2.71;100.00
51849;BME280;38952;51.090;-1.832;2023-01-26T01:09:46;101706.94;;;2.72;100.00
51849;BME280;38952;51.090;-1.832;2023-01-26T01:12:12;101701.53;;;2.72;100.00
51849;BME280;38952;51.090;-1.832;2023-01-26T01:14:37;101702.97;;;2.59;100.00
51849;BME280;38952;51.090;-1.832;2023-01-26T01:17:02;101706.75;;;2.50;100.00
51849;BME280;38952;51.090;-1.832;2023-01-26T01:19:28;101699.69;;;2.49;100.00
51849;BME280;38952;51.090;-1.832;2023-01-26T01:21:53;101697.97;;;2.48;100.00
51849;BME280;38952;51.090;-1.832;2023-01-26T01:24:19;101699.13;;;2.54;100.00
51849;BME280;38952;51.090;-1.832;2023-01-26T01:26:44;101702.38;;;2.49;100.00
51849;BME280;38952;51.090;-1.832;2023-01-26T01:29:12;101700.59;;;2.41;100.00
51849;BME280;38952;51.090;-1.832;2023-01-26T01:31:38;101694.59;;;2.31;100.00
51849;BME280;38952;51.090;-1.832;2023-01-26T01:34:03;101695.19;;;2.18;100.00
51849;BME280;38952;51.090;-1.832;2023-01-26T01:36:29;101688.47;;;2.14;100.00
51849;BME280;38952;51.090;-1.832;2023-01-26T01:38:55;101694.53;;;2.16;100.00
51849;BME280;38952;51.090;-1.832;2023-01-26T01:41:21;101702.81;;;2.15;100.00
51849;BME280;38952;51.090;-1.832;2023-01-26T01:43:48;101701.31;;;2.12;100.00
51849;BME280;38952;51.090;-1.832;2023-01-26T01:46:35;101701.66;;;2.09;100.00
51849;BME280;38952;51.090;-1.832;2023-01-26T01:51:42;101695.97;;;1.96;100.00
51849;BME280;38952;51.090;-1.832;2023-01-26T01:54:18;101703.44;;;1.94;100.00
51849;BME280;38952;51.090;-1.832;2023-01-26T01:56:49;101710.88;;;1.91;100.00
51849;BME280;38952;51.090;-1.832;2023-01-26T01:59:17;101707.19;;;1.84;100.00
51849;BME280;38952;51.090;-1.832;2023-01-26T02:01:45;101710.50;;;1.95;100.00
51849;BME280;38952;51.090;-1.832;2023-01-26T02:04:12;101711.69;;;1.92;100.00
51849;BME280;38952;51.090;-1.832;2023-01-26T02:06:48;101705.34;;;1.85;100.00
51849;BME280;38952;51.090;-1.832;2023-01-26T02:09:15;101703.53;;;1.77;100.00
51849;BME280;38952;51.090;-1.832;2023-01-26T02:12:02;101712.16;;;1.72;100.00
51849;BME280;38952;51.090;-1.832;2023-01-26T02:14:31;101709.78;;;1.69;100.00
51849;BME280;38952;51.090;-1.832;2023-01-26T02:16:57;101703.59;;;1.61;100.00
51849;BME280;38952;51.090;-1.832;2023-01-26T02:19:42;101711.38;;;1.55;100.00
51849;BME280;38952;51.090;-1.832;2023-01-26T02:22:18;101714.09;;;1.47;100.00
51849;BME280;38952;51.090;-1.832;2023-01-26T02:24:48;101705.38;;;1.37;100.00
51849;BME280;38952;51.090;-1.832;2023-01-26T02:27:13;101685.88;;;1.27;100.00
51849;BME280;38952;51.090;-1.832;2023-01-26T02:29:39;101711.09;;;1.42;100.00
51849;BME280;38952;51.090;-1.832;2023-01-26T02:32:06;101706.41;;;1.36;100.00
51849;BME280;38952;51.090;-1.832;2023-01-26T02:34:32;101703.03;;;1.34;100.00
51849;BME280;38952;51.090;-1.832;2023-01-26T02:36:58;101718.50;;;1.40;100.00
51849;BME280;38952;51.090;-1.832;2023-01-26T02:39:37;101716.16;;;1.37;100.00
51849;BME280;38952;51.090;-1.832;2023-01-26T02:42:05;101713.44;;;1.37;100.00
51849;BME280;38952;51.090;-1.832;2023-01-26T02:44:50;101717.84;;;1.38;100.00
51849;BME280;38952;51.090;-1.832;2023-01-26T02:47:17;101729.28;;;1.40;100.00
51849;BME280;38952;51.090;-1.832;2023-01-26T02:49:43;101721.53;;;1.45;100.00
51849;BME280;38952;51.090;-1.832;2023-01-26T02:52:13;101722.16;;;1.55;100.00
51849;BME280;38952;51.090;-1.832;2023-01-26T02:54:38;101722.50;;;1.52;100.00
51849;BME280;38952;51.090;-1.832;2023-01-26T02:57:22;101733.41;;;1.59;100.00
51849;BME280;38952;51.090;-1.832;2023-01-26T02:59:48;101730.25;;;1.55;100.00
51849;BME280;38952;51.090;-1.832;2023-01-26T03:02:14;101734.13;;;1.53;100.00
51849;BME280;38952;51.090;-1.832;2023-01-26T03:04:40;101740.69;;;1.50;100.00
51849;BME280;38952;51.090;-1.832;2023-01-26T03:07:06;101737.88;;;1.44;100.00
51849;BME280;38952;51.090;-1.832;2023-01-26T03:09:31;101730.13;;;1.41;100.00
51849;BME280;38952;51.090;-1.832;2023-01-26T03:11:57;101737.06;;;1.35;100.00
51849;BME280;38952;51.090;-1.832;2023-01-26T03:14:22;101727.81;;;1.29;100.00
51849;BME280;38952;51.090;-1.832;2023-01-26T03:16:47;101731.69;;;1.27;100.00
51849;BME280;38952;51.090;-1.832;2023-01-26T03:19:14;101728.28;;;1.33;100.00
51849;BME280;38952;51.090;-1.832;2023-01-26T03:21:58;101728.13;;;1.34;100.00
51849;BME280;38952;51.090;-1.832;2023-01-26T03:24:42;101729.97;;;1.34;100.00
51849;BME280;38952;51.090;-1.832;2023-01-26T03:27:26;101735.00;;;1.37;100.00
51849;BME280;38952;51.090;-1.832;2023-01-26T03:29:55;101731.31;;;1.38;100.00
51849;BME280;38952;51.090;-1.832;2023-01-26T03:32:21;101732.50;;;1.35;100.00
51849;BME280;38952;51.090;-1.832;2023-01-26T03:34:46;101741.44;;;1.36;100.00
51849;BME280;38952;51.090;-1.832;2023-01-26T03:37:12;101737.06;;;1.35;100.00
51849;BME280;38952;51.090;-1.832;2023-01-26T03:39:37;101737.06;;;1.35;100.00
51849;BME280;38952;51.090;-1.832;2023-01-26T03:42:21;101754.06;;;1.35;100.00
51849;BME280;38952;51.090;-1.832;2023-01-26T03:45:05;101740.28;;;1.30;100.00
51849;BME280;38952;51.090;-1.832;2023-01-26T03:47:49;101750.84;;;1.40;100.00
51849;BME280;38952;51.090;-1.832;2023-01-26T03:50:33;101757.91;;;1.41;100.00
51849;BME280;38952;51.090;-1.832;2023-01-26T03:53:22;101755.69;;;1.53;100.00
51849;BME280;38952;51.090;-1.832;2023-01-26T03:56:08;101770.97;;;1.69;100.00
51849;BME280;38952;51.090;-1.832;2023-01-26T03:58:58;101764.06;;;1.74;100.00
51849;BME280;38952;51.090;-1.832;2023-01-26T04:01:38;101770.91;;;1.85;100.00
51849;BME280;38952;51.090;-1.832;2023-01-26T04:04:05;101764.13;;;1.98;100.00
51849;BME280;38952;51.090;-1.832;2023-01-26T04:06:50;101772.31;;;2.13;100.00
51849;BME280;38952;51.090;-1.832;2023-01-26T04:09:35;101757.91;;;2.20;100.00
51849;BME280;38952;51.090;-1.832;2023-01-26T04:12:01;101754.88;;;2.23;100.00
51849;BME280;38952;51.090;-1.832;2023-01-26T04:14:27;101754.69;;;2.25;100.00
51849;BME280;38952;51.090;-1.832;2023-01-26T04:17:11;101756.50;;;2.33;100.00
51849;BME280;38952;51.090;-1.832;2023-01-26T04:19:55;101762.81;;;2.25;100.00
51849;BME280;38952;51.090;-1.832;2023-01-26T04:22:40;101769.03;;;2.25;100.00
51849;BME280;38952;51.090;-1.832;2023-01-26T04:25:20;101756.25;;;2.19;100.00
51849;BME280;38952;51.090;-1.832;2023-01-26T04:27:46;101755.31;;;2.04;100.00
51849;BME280;38952;51.090;-1.832;2023-01-26T04:30:13;101762.78;;;1.94;100.00
51849;BME280;38952;51.090;-1.832;2023-01-26T04:32:39;101762.34;;;1.82;100.00
51849;BME280;38952;51.090;-1.832;2023-01-26T04:35:06;101757.47;;;1.77;100.00
51849;BME280;38952;51.090;-1.832;2023-01-26T04:37:32;101745.53;;;1.63;100.00
51849;BME280;38952;51.090;-1.832;2023-01-26T04:39:58;101768.47;;;1.59;100.00
51849;BME280;38952;51.090;-1.832;2023-01-26T04:42:24;101758.22;;;1.54;100.00
51849;BME280;38952;51.090;-1.832;2023-01-26T04:44:53;101762.25;;;1.50;100.00
51849;BME280;38952;51.090;-1.832;2023-01-26T04:47:19;101777.25;;;1.53;100.00
51849;BME280;38952;51.090;-1.832;2023-01-26T04:49:45;101764.66;;;1.45;100.00
51849;BME280;38952;51.090;-1.832;2023-01-26T04:52:11;101770.03;;;1.45;100.00
51849;BME280;38952;51.090;-1.832;2023-01-26T04:54:37;101764.00;;;1.35;100.00
51849;BME280;38952;51.090;-1.832;2023-01-26T04:57:03;101776.78;;;1.33;100.00
51849;BME280;38952;51.090;-1.832;2023-01-26T04:59:28;101772.09;;;1.27;100.00
51849;BME280;38952;51.090;-1.832;2023-01-26T05:01:55;101781.22;;;1.26;100.00
51849;BME280;38952;51.090;-1.832;2023-01-26T05:04:20;101791.00;;;1.18;100.00
51849;BME280;38952;51.090;-1.832;2023-01-26T05:06:46;101771.44;;;1.16;100.00
51849;BME280;38952;51.090;-1.832;2023-01-26T05:09:11;101777.53;;;1.18;100.00
51849;BME280;38952;51.090;-1.832;2023-01-26T05:11:36;101766.56;;;1.12;100.00
51849;BME280;38952;51.090;-1.832;2023-01-26T05:14:02;101775.53;;;1.04;100.00
51849;BME280;38952;51.090;-1.832;2023-01-26T05:16:28;101775.88;;;1.01;100.00
51849;BME280;38952;51.090;-1.832;2023-01-26T05:18:53;101765.41;;;0.90;100.00
51849;BME280;38952;51.090;-1.832;2023-01-26T05:21:19;101778.38;;;0.86;100.00
51849;BME280;38952;51.090;-1.832;2023-01-26T05:23:49;101763.88;;;0.79;100.00
51849;BME280;38952;51.090;-1.832;2023-01-26T05:26:14;101773.16;;;0.84;100.00
51849;BME280;38952;51.090;-1.832;2023-01-26T05:28:40;101772.13;;;0.77;100.00
51849;BME280;38952;51.090;-1.832;2023-01-26T05:31:05;101769.44;;;0.77;100.00
51849;BME280;38952;51.090;-1.832;2023-01-26T05:33:30;101771.78;;;0.80;100.00
51849;BME280;38952;51.090;-1.832;2023-01-26T05:35:56;101774.50;;;0.89;100.00
51849;BME280;38952;51.090;-1.832;2023-01-26T05:38:23;101769.47;;;0.85;100.00
51849;BME280;38952;51.090;-1.832;2023-01-26T05:40:48;101769.47;;;0.85;100.00
51849;BME280;38952;51.090;-1.832;2023-01-26T05:43:14;101772.81;;;0.96;100.00
51849;BME280;38952;51.090;-1.832;2023-01-26T05:45:39;101765.41;;;1.06;100.00
51849;BME280;38952;51.090;-1.832;2023-01-26T05:48:05;101767.91;;;1.08;100.00
51849;BME280;38952;51.090;-1.832;2023-01-26T05:50:31;101762.22;;;1.02;100.00
51849;BME280;38952;51.090;-1.832;2023-01-26T05:52:56;101760.34;;;0.95;100.00
51849;BME280;38952;51.090;-1.832;2023-01-26T05:55:24;101761.03;;;0.97;100.00
51849;BME280;38952;51.090;-1.832;2023-01-26T05:57:50;101772.81;;;1.04;100.00
51849;BME280;38952;51.090;-1.832;2023-01-26T06:00:16;101767.78;;;1.01;100.00
51849;BME280;38952;51.090;-1.832;2023-01-26T06:02:41;101783.59;;;1.04;100.00
51849;BME280;38952;51.090;-1.832;2023-01-26T06:05:07;101787.28;;;1.03;100.00
51849;BME280;38952;51.090;-1.832;2023-01-26T06:07:33;101782.25;;;1.00;100.00
51849;BME280;38952;51.090;-1.832;2023-01-26T06:09:58;101787.97;;;0.97;100.00
51849;BME280;38952;51.090;-1.832;2023-01-26T06:12:24;101789.63;;;0.98;100.00
51849;BME280;38952;51.090;-1.832;2023-01-26T06:14:49;101800.59;;;1.04;100.00
51849;BME280;38952;51.090;-1.832;2023-01-26T06:17:16;101799.06;;;1.10;100.00
51849;BME280;38952;51.090;-1.832;2023-01-26T06:19:42;101792.84;;;1.10;100.00
51849;BME280;38952;51.090;-1.832;2023-01-26T06:22:09;101796.03;;;1.21;100.00
51849;BME280;38952;51.090;-1.832;2023-01-26T06:24:35;101789.78;;;1.21;100.00
51849;BME280;38952;51.090;-1.832;2023-01-26T06:27:00;101805.13;;;1.20;100.00
51849;BME280;38952;51.090;-1.832;2023-01-26T06:29:26;101802.09;;;1.15;100.00
51849;BME280;38952;51.090;-1.832;2023-01-26T06:31:52;101808.00;;;1.19;100.00
51849;BME280;38952;51.090;-1.832;2023-01-26T06:34:17;101802.25;;;1.14;100.00
51849;BME280;38952;51.090;-1.832;2023-01-26T06:36:44;101807.47;;;1.24;100.00
51849;BME280;38952;51.090;-1.832;2023-01-26T06:39:10;101811.53;;;1.28;100.00
51849;BME280;38952;51.090;-1.832;2023-01-26T06:41:36;101820.28;;;1.21;100.00
51849;BME280;38952;51.090;-1.832;2023-01-26T06:44:01;101813.22;;;1.12;100.00
51849;BME280;38952;51.090;-1.832;2023-01-26T06:46:27;101812.88;;;1.07;100.00
51849;BME280;38952;51.090;-1.832;2023-01-26T06:48:52;101824.00;;;1.12;100.00
51849;BME280;38952;51.090;-1.832;2023-01-26T06:54:01;101831.41;;;1.10;100.00
51849;BME280;38952;51.090;-1.832;2023-01-26T06:56:27;101830.41;;;1.03;100.00
51849;BME280;38952;51.090;-1.832;2023-01-26T06:58:53;101828.38;;;0.89;100.00
51849;BME280;38952;51.090;-1.832;2023-01-26T07:01:20;101825.50;;;0.90;100.00
51849;BME280;38952;51.090;-1.832;2023-01-26T07:03:47;101824.00;;;0.79;100.00
51849;BME280;38952;51.090;-1.832;2023-01-26T07:06:13;101838.63;;;0.77;100.00
51849;BME280;38952;51.090;-1.832;2023-01-26T07:08:39;101844.53;;;0.72;100.00
51849;BME280;38952;51.090;-1.832;2023-01-26T07:11:05;101836.09;;;0.67;100.00
51849;BME280;38952;51.090;-1.832;2023-01-26T07:13:31;101842.66;;;0.73;100.00
51849;BME280;38952;51.090;-1.832;2023-01-26T07:16:03;101849.09;;;0.88;100.00
51849;BME280;38952;51.090;-1.832;2023-01-26T07:18:29;101850.94;;;1.12;100.00
51849;BME280;38952;51.090;-1.832;2023-01-26T07:21:15;101869.13;;;1.27;100.00
51849;BME280;38952;51.090;-1.832;2023-01-26T07:23:47;101873.84;;;1.41;100.00
51849;BME280;38952;51.090;-1.832;2023-01-26T07:26:13;101869.94;;;1.52;100.00
51849;BME280;38952;51.090;-1.832;2023-01-26T07:28:38;101861.50;;;1.71;100.00
51849;BME280;38952;51.090;-1.832;2023-01-26T07:31:05;101853.91;;;1.67;100.00
51849;BME280;38952;51.090;-1.832;2023-01-26T07:33:32;101862.50;;;1.79;100.00
51849;BME280;38952;51.090;-1.832;2023-01-26T07:35:58;101867.03;;;1.78;100.00
51849;BME280;38952;51.090;-1.832;2023-01-26T07:38:25;101860.66;;;1.71;100.00
51849;BME280;38952;51.090;-1.832;2023-01-26T07:40:51;101865.03;;;1.72;100.00
51849;BME280;38952;51.090;-1.832;2023-01-26T07:43:17;101872.63;;;1.60;100.00
51849;BME280;38952;51.090;-1.832;2023-01-26T07:45:50;101882.56;;;1.68;100.00
51849;BME280;38952;51.090;-1.832;2023-01-26T07:48:17;101887.47;;;1.72;100.00
51849;BME280;38952;51.090;-1.832;2023-01-26T07:50:43;101889.28;;;1.72;100.00
51849;BME280;38952;51.090;-1.832;2023-01-26T07:53:10;101891.00;;;1.65;100.00
51849;BME280;38952;51.090;-1.832;2023-01-26T07:55:37;101884.59;;;1.66;100.00
51849;BME280;38952;51.090;-1.832;2023-01-26T07:58:02;101870.75;;;1.77;100.00
51849;BME280;38952;51.090;-1.832;2023-01-26T08:00:28;101865.19;;;1.70;100.00
51849;BME280;38952;51.090;-1.832;2023-01-26T08:02:53;101879.38;;;1.56;100.00
51849;BME280;38952;51.090;-1.832;2023-01-26T08:05:22;101880.91;;;1.42;100.00
51849;BME280;38952;51.090;-1.832;2023-01-26T08:07:47;101884.78;;;1.39;100.00
51849;BME280;38952;51.090;-1.832;2023-01-26T08:10:13;101884.78;;;1.56;100.00
51849;BME280;38952;51.090;-1.832;2023-01-26T08:12:41;101873.13;;;1.72;100.00
51849;BME280;38952;51.090;-1.832;2023-01-26T08:15:07;101879.81;;;1.92;100.00
51849;BME280;38952;51.090;-1.832;2023-01-26T08:17:38;101883.19;;;1.95;100.00
51849;BME280;38952;51.090;-1.832;2023-01-26T08:20:07;101891.25;;;2.03;100.00
51849;BME280;38952;51.090;-1.832;2023-01-26T08:22:32;101877.34;;;1.74;100.00
51849;BME280;38952;51.090;-1.832;2023-01-26T08:24:58;101888.81;;;1.68;100.00
51849;BME280;38952;51.090;-1.832;2023-01-26T08:27:23;101903.25;;;1.84;100.00
51849;BME280;38952;51.090;-1.832;2023-01-26T08:29:49;101901.66;;;2.14;100.00
51849;BME280;38952;51.090;-1.832;2023-01-26T08:32:15;101893.44;;;2.47;100.00
51849;BME280;38952;51.090;-1.832;2023-01-26T08:34:41;101877.09;;;2.72;100.00
51849;BME280;38952;51.090;-1.832;2023-01-26T08:37:06;101884.19;;;2.96;100.00
51849;BME280;38952;51.090;-1.832;2023-01-26T08:39:34;101903.47;;;3.16;100.00
51849;BME280;38952;51.090;-1.832;2023-01-26T08:42:02;101895.38;;;3.16;100.00
51849;BME280;38952;51.090;-1.832;2023-01-26T08:44:27;101883.53;;;3.17;100.00
51849;BME280;38952;51.090;-1.832;2023-01-26T08:46:55;101883.19;;;3.20;100.00
51849;BME280;38952;51.090;-1.832;2023-01-26T08:49:20;101887.53;;;3.21;100.00
51849;BME280;38952;51.090;-1.832;2023-01-26T08:51:46;101896.63;;;3.28;100.00
51849;BME280;38952;51.090;-1.832;2023-01-26T08:54:11;101897.19;;;3.39;100.00
51849;BME280;38952;51.090;-1.832;2023-01-26T08:56:36;101904.06;;;3.49;100.00
51849;BME280;38952;51.090;-1.832;2023-01-26T08:59:02;101894.56;;;3.54;100.00
51849;BME280;38952;51.090;-1.832;2023-01-26T09:01:27;101903.25;;;3.64;100.00
51849;BME280;38952;51.090;-1.832;2023-01-26T09:03:53;101893.06;;;3.66;100.00
51849;BME280;38952;51.090;-1.832;2023-01-26T09:06:22;101898.06;;;3.92;100.00
51849;BME280;38952;51.090;-1.832;2023-01-26T09:08:49;101897.41;;;4.20;100.00
51849;BME280;38952;51.090;-1.832;2023-01-26T09:11:14;101880.31;;;4.34;100.00
51849;BME280;38952;51.090;-1.832;2023-01-26T09:13:40;101890.28;;;4.19;100.00
51849;BME280;38952;51.090;-1.832;2023-01-26T09:16:18;101907.41;;;4.05;100.00
51849;BME280;38952;51.090;-1.832;2023-01-26T09:18:53;101905.25;;;4.30;100.00
51849;BME280;38952;51.090;-1.832;2023-01-26T09:21:19;101906.59;;;4.70;100.00
51849;BME280;38952;51.090;-1.832;2023-01-26T09:23:44;101900.75;;;6.58;100.00
51849;BME280;38952;51.090;-1.832;2023-01-26T09:26:10;101910.72;;;10.67;100.00
51849;BME280;38952;51.090;-1.832;2023-01-26T09:28:36;101925.75;;;13.59;100.00
51849;BME280;38952;51.090;-1.832;2023-01-26T09:31:03;101938.50;;;15.10;100.00
51849;BME280;38952;51.090;-1.832;2023-01-26T09:33:31;101940.06;;;16.30;100.00
51849;BME280;38952;51.090;-1.832;2023-01-26T09:36:15;101960.31;;;17.30;100.00
51849;BME280;38952;51.090;-1.832;2023-01-26T09:38:54;101940.69;;;17.68;100.00
51849;BME280;38952;51.090;-1.832;2023-01-26T09:41:55;101952.06;;;18.88;100.00
51849;BME280;38952;51.090;-1.832;2023-01-26T09:44:39;101944.28;;;19.35;100.00
51849;BME280;38952;51.090;-1.832;2023-01-26T09:47:30;101959.53;;;17.66;100.00
51849;BME280;38952;51.090;-1.832;2023-01-26T09:50:20;101956.72;;;15.38;100.00
51849;BME280;38952;51.090;-1.832;2023-01-26T09:52:55;101941.94;;;14.51;100.00
51849;BME280;38952;51.090;-1.832;2023-01-26T09:55:26;101951.59;;;16.75;100.00
51849;BME280;38952;51.090;-1.832;2023-01-26T09:58:34;101946.69;;;19.47;100.00
51849;BME280;38952;51.090;-1.832;2023-01-26T10:01:02;101945.72;;;21.12;100.00
51849;BME280;38952;51.090;-1.832;2023-01-26T10:03:43;101944.25;;;21.86;100.00
51849;BME280;38952;51.090;-1.832;2023-01-26T10:06:25;101934.09;;;22.78;100.00
51849;BME280;38952;51.090;-1.832;2023-01-26T10:08:54;101909.59;;;23.26;100.00
51849;BME280;38952;51.090;-1.832;2023-01-26T10:11:35;101909.66;;;23.57;100.00
51849;BME280;38952;51.090;-1.832;2023-01-26T10:16:38;101925.25;;;24.12;96.18
51849;BME280;38952;51.090;-1.832;2023-01-26T10:19:32;101942.78;;;24.44;91.29
51849;BME280;38952;51.090;-1.832;2023-01-26T10:22:04;101929.75;;;23.91;90.67
51849;BME280;38952;51.090;-1.832;2023-01-26T10:24:32;101951.94;;;24.67;90.78
51849;BME280;38952;51.090;-1.832;2023-01-26T10:26:59;101952.63;;;24.33;84.34
51849;BME280;38952;51.090;-1.832;2023-01-26T10:29:25;101954.75;;;24.27;91.76
51849;BME280;38952;51.090;-1.832;2023-01-26T10:31:50;101946.06;;;25.48;86.17
51849;BME280;38952;51.090;-1.832;2023-01-26T10:34:21;101952.47;;;25.83;85.34
51849;BME280;38952;51.090;-1.832;2023-01-26T10:36:48;101960.25;;;25.42;78.28
51849;BME280;38952;51.090;-1.832;2023-01-26T10:39:15;101953.16;;;21.55;81.80
51849;BME280;38952;51.090;-1.832;2023-01-26T10:41:58;101949.56;;;19.31;93.09
51849;BME280;38952;51.090;-1.832;2023-01-26T10:44:34;101953.69;;;17.72;100.00
51849;BME280;38952;51.090;-1.832;2023-01-26T10:47:15;101949.25;;;16.51;100.00
51849;BME280;38952;51.090;-1.832;2023-01-26T10:49:41;101936.84;;;16.01;100.00
51849;BME280;38952;51.090;-1.832;2023-01-26T10:52:21;101939.22;;;19.77;100.00
51849;BME280;38952;51.090;-1.832;2023-01-26T10:55:25;101948.56;;;21.26;89.00
51849;BME280;38952;51.090;-1.832;2023-01-26T10:57:51;101944.28;;;18.90;93.79
51849;BME280;38952;51.090;-1.832;2023-01-26T11:00:29;101949.78;;;17.17;97.65
51849;BME280;38952;51.090;-1.832;2023-01-26T11:05:36;101941.59;;;13.86;100.00
51849;BME280;38952;51.090;-1.832;2023-01-26T11:08:01;101939.81;;;12.59;100.00
51849;BME280;38952;51.090;-1.832;2023-01-26T11:10:36;101928.91;;;12.12;100.00
51849;BME280;38952;51.090;-1.832;2023-01-26T11:13:13;101947.53;;;12.74;100.00
51849;BME280;38952;51.090;-1.832;2023-01-26T11:16:19;101939.88;;;15.07;100.00
51849;BME280;38952;51.090;-1.832;2023-01-26T11:18:59;101944.03;;;15.37;100.00
51849;BME280;38952;51.090;-1.832;2023-01-26T11:24:08;101945.59;;;19.43;100.00
51849;BME280;38952;51.090;-1.832;2023-01-26T11:33:24;101938.25;;;18.73;96.85
51849;BME280;38952;51.090;-1.832;2023-01-26T11:40:46;101944.41;;;22.92;87.57
51849;BME280;38952;51.090;-1.832;2023-01-26T11:46:09;101953.34;;;21.77;88.56
51849;BME280;38952;51.090;-1.832;2023-01-26T12:04:55;101915.84;;;14.31;100.00
51849;BME280;38952;51.090;-1.832;2023-01-26T12:08:14;101922.25;;;13.81;100.00
51849;BME280;38952;51.090;-1.832;2023-01-26T12:10:35;101918.78;;;14.46;100.00
51849;BME280;38952;51.090;-1.832;2023-01-26T12:15:37;101923.78;;;18.16;100.00
51849;BME280;38952;51.090;-1.832;2023-01-26T12:20:41;101926.69;;;16.65;100.00
51849;BME280;38952;51.090;-1.832;2023-01-26T12:23:15;101917.75;;;17.67;100.00
51849;BME280;38952;51.090;-1.832;2023-01-26T12:25:50;101919.81;;;18.47;98.24
51849;BME280;38952;51.090;-1.832;2023-01-26T12:31:12;101911.13;;;16.43;100.00
51849;BME280;38952;51.090;-1.832;2023-01-26T12:33:40;101891.59;;;15.64;100.00
51849;BME280;38952;51.090;-1.832;2023-01-26T12:36:17;101901.75;;;15.59;100.00
51849;BME280;38952;51.090;-1.832;2023-01-26T12:41:43;101898.88;;;15.43;100.00
51849;BME280;38952;51.090;-1.832;2023-01-26T12:47:00;101890.06;;;17.77;100.00
51849;BME280;38952;51.090;-1.832;2023-01-26T12:49:33;101897.50;;;18.03;100.00
51849;BME280;38952;51.090;-1.832;2023-01-26T12:52:14;101888.06;;;16.85;98.25
51849;BME280;38952;51.090;-1.832;2023-01-26T12:57:32;101883.09;;;15.71;100.00
51849;BME280;38952;51.090;-1.832;2023-01-26T13:00:05;101869.84;;;15.68;100.00
51849;BME280;38952;51.090;-1.832;2023-01-26T13:02:33;101881.38;;;16.66;100.00
51849;BME280;38952;51.090;-1.832;2023-01-26T13:05:01;101871.53;;;17.01;100.00
51849;BME280;38952;51.090;-1.832;2023-01-26T13:10:20;101874.19;;;20.36;100.00
51849;BME280;38952;51.090;-1.832;2023-01-26T13:15:19;101879.66;;;23.94;85.42
51849;BME280;38952;51.090;-1.832;2023-01-26T13:17:53;101888.69;;;21.81;84.19
51849;BME280;38952;51.090;-1.832;2023-01-26T13:20:27;101879.72;;;19.24;88.34
51849;BME280;38952;51.090;-1.832;2023-01-26T13:23:43;101873.53;;;17.26;100.00
51849;BME280;38952;51.090;-1.832;2023-01-26T13:28:43;101879.06;;;15.79;100.00
51849;BME280;38952;51.090;-1.832;2023-01-26T13:31:10;101883.50;;;16.38;100.00
51849;BME280;38952;51.090;-1.832;2023-01-26T13:33:36;101875.19;;;15.80;100.00
51849;BME280;38952;51.090;-1.832;2023-01-26T13:36:03;101859.91;;;15.67;100.00
51849;BME280;38952;51.090;-1.832;2023-01-26T13:38:38;101869.78;;;15.25;100.00
51849;BME280;38952;51.090;-1.832;2023-01-26T13:41:08;101874.50;;;15.30;100.00
51849;BME280;38952;51.090;-1.832;2023-01-26T13:46:42;101877.06;;;17.01;100.00
51849;BME280;38952;51.090;-1.832;2023-01-26T13:49:39;101869.50;;;15.22;100.00
51849;BME280;38952;51.090;-1.832;2023-01-26T13:52:25;101876.16;;;14.05;100.00
51849;BME280;38952;51.090;-1.832;2023-01-26T13:54:53;101867.63;;;13.67;100.00
51849;BME280;38952;51.090;-1.832;2023-01-26T13:57:25;101856.75;;;13.09;100.00
51849;BME280;38952;51.090;-1.832;2023-01-26T13:59:55;101873.00;;;13.28;100.00
51849;BME280;38952;51.090;-1.832;2023-01-26T14:02:37;101878.78;;;13.60;100.00
51849;BME280;38952;51.090;-1.832;2023-01-26T14:05:03;101869.44;;;13.44;100.00